sensor_id;sensor_type;location;lat;lon;timestamp;P1;durP1;ratioP1;P2;durP2;ratioP2
54929;SDS011;40833;53.238;6.576;2024-03-06T00:02:07;16.97;;;9.67;;
54929;SDS011;40833;53.238;6.576;2024-03-06T00:04:34;17.03;;;8.83;;
54929;SDS011;40833;53.238;6.576;2024-03-06T00:07:00;20.53;;;10.20;;
54929;SDS011;40833;53.238;6.576;2024-03-06T00:09:26;20.77;;;9.97;;
54929;SDS011;40833;53.238;6.576;2024-03-06T00:11:52;19.97;;;9.87;;
54929;SDS011;40833;53.238;6.576;2024-03-06T00:14:19;15.93;;;9.57;;
54929;SDS011;40833;53.238;6.576;2024-03-06T00:16:46;19.30;;;10.07;;
54929;SDS011;40833;53.238;6.576;2024-03-06T00:19:13;20.77;;;9.93;;
54929;SDS011;40833;53.238;6.576;2024-03-06T00:21:38;20.93;;;10.70;;
54929;SDS011;40833;53.238;6.576;2024-03-06T00:24:04;17.90;;;9.70;;
54929;SDS011;40833;53.238;6.576;2024-03-06T00:26:30;15.47;;;8.70;;
54929;SDS011;40833;53.238;6.576;2024-03-06T00:28:56;18.93;;;9.60;;
54929;SDS011;40833;53.238;6.576;2024-03-06T00:31:21;14.37;;;8.67;;
54929;SDS011;40833;53.238;6.576;2024-03-06T00:33:47;21.07;;;9.43;;
54929;SDS011;40833;53.238;6.576;2024-03-06T00:36:13;19.17;;;8.77;;
54929;SDS011;40833;53.238;6.576;2024-03-06T00:38:39;17.27;;;9.07;;
54929;SDS011;40833;53.238;6.576;2024-03-06T00:41:04;17.47;;;9.20;;
54929;SDS011;40833;53.238;6.576;2024-03-06T00:43:30;16.00;;;8.87;;
54929;SDS011;40833;53.238;6.576;2024-03-06T00:45:56;22.83;;;9.77;;
54929;SDS011;40833;53.238;6.576;2024-03-06T00:48:22;14.67;;;9.40;;
54929;SDS011;40833;53.238;6.576;2024-03-06T00:50:47;17.77;;;9.33;;
54929;SDS011;40833;53.238;6.576;2024-03-06T00:53:13;18.30;;;9.43;;
54929;SDS011;40833;53.238;6.576;2024-03-06T00:55:39;18.13;;;10.13;;
54929;SDS011;40833;53.238;6.576;2024-03-06T00:58:04;19.40;;;9.70;;
54929;SDS011;40833;53.238;6.576;2024-03-06T01:00:31;16.87;;;9.23;;
54929;SDS011;40833;53.238;6.576;2024-03-06T01:02:57;18.03;;;9.27;;
54929;SDS011;40833;53.238;6.576;2024-03-06T01:05:23;17.03;;;9.70;;
54929;SDS011;40833;53.238;6.576;2024-03-06T01:07:49;17.67;;;10.97;;
54929;SDS011;40833;53.238;6.576;2024-03-06T01:10:15;17.40;;;8.93;;
54929;SDS011;40833;53.238;6.576;2024-03-06T01:12:40;21.80;;;10.17;;
54929;SDS011;40833;53.238;6.576;2024-03-06T01:15:10;15.33;;;9.90;;
54929;SDS011;40833;53.238;6.576;2024-03-06T01:17:36;17.20;;;9.03;;
54929;SDS011;40833;53.238;6.576;2024-03-06T01:20:02;16.13;;;9.37;;
54929;SDS011;40833;53.238;6.576;2024-03-06T01:22:31;14.97;;;9.77;;
54929;SDS011;40833;53.238;6.576;2024-03-06T01:24:58;13.60;;;9.53;;
54929;SDS011;40833;53.238;6.576;2024-03-06T01:27:24;15.80;;;9.40;;
54929;SDS011;40833;53.238;6.576;2024-03-06T01:29:50;19.17;;;9.73;;
54929;SDS011;40833;53.238;6.576;2024-03-06T01:32:16;17.03;;;9.37;;
54929;SDS011;40833;53.238;6.576;2024-03-06T01:34:41;14.80;;;9.40;;
54929;SDS011;40833;53.238;6.576;2024-03-06T01:37:07;14.70;;;9.60;;
54929;SDS011;40833;53.238;6.576;2024-03-06T01:39:33;16.03;;;8.83;;
54929;SDS011;40833;53.238;6.576;2024-03-06T01:42:00;12.37;;;8.23;;
54929;SDS011;40833;53.238;6.576;2024-03-06T01:44:26;22.40;;;8.97;;
54929;SDS011;40833;53.238;6.576;2024-03-06T01:46:52;14.20;;;9.47;;
54929;SDS011;40833;53.238;6.576;2024-03-06T01:49:19;15.50;;;9.43;;
54929;SDS011;40833;53.238;6.576;2024-03-06T01:51:48;17.63;;;9.63;;
54929;SDS011;40833;53.238;6.576;2024-03-06T01:54:16;15.97;;;9.17;;
54929;SDS011;40833;53.238;6.576;2024-03-06T01:56:44;18.40;;;9.50;;
54929;SDS011;40833;53.238;6.576;2024-03-06T01:59:11;18.87;;;9.50;;
54929;SDS011;40833;53.238;6.576;2024-03-06T02:01:38;17.57;;;9.37;;
54929;SDS011;40833;53.238;6.576;2024-03-06T02:04:05;16.93;;;9.93;;
54929;SDS011;40833;53.238;6.576;2024-03-06T02:06:35;16.87;;;10.13;;
54929;SDS011;40833;53.238;6.576;2024-03-06T02:09:01;18.53;;;9.83;;
54929;SDS011;40833;53.238;6.576;2024-03-06T02:11:28;16.87;;;9.67;;
54929;SDS011;40833;53.238;6.576;2024-03-06T02:13:54;19.70;;;11.17;;
54929;SDS011;40833;53.238;6.576;2024-03-06T02:16:20;18.27;;;11.07;;
54929;SDS011;40833;53.238;6.576;2024-03-06T02:18:55;15.70;;;10.27;;
54929;SDS011;40833;53.238;6.576;2024-03-06T02:21:24;18.23;;;10.57;;
54929;SDS011;40833;53.238;6.576;2024-03-06T02:23:51;17.13;;;10.53;;
54929;SDS011;40833;53.238;6.576;2024-03-06T02:26:20;18.10;;;9.97;;
54929;SDS011;40833;53.238;6.576;2024-03-06T02:28:50;20.03;;;10.83;;
54929;SDS011;40833;53.238;6.576;2024-03-06T02:31:17;17.70;;;10.47;;
54929;SDS011;40833;53.238;6.576;2024-03-06T02:33:45;17.13;;;10.53;;
54929;SDS011;40833;53.238;6.576;2024-03-06T02:36:12;16.80;;;10.63;;
54929;SDS011;40833;53.238;6.576;2024-03-06T02:38:38;17.67;;;10.93;;
54929;SDS011;40833;53.238;6.576;2024-03-06T02:41:03;18.47;;;10.60;;
54929;SDS011;40833;53.238;6.576;2024-03-06T02:43:31;16.70;;;10.47;;
54929;SDS011;40833;53.238;6.576;2024-03-06T02:46:00;15.07;;;10.47;;
54929;SDS011;40833;53.238;6.576;2024-03-06T02:48:26;17.63;;;9.83;;
54929;SDS011;40833;53.238;6.576;2024-03-06T02:50:51;21.53;;;10.83;;
54929;SDS011;40833;53.238;6.576;2024-03-06T02:53:17;15.40;;;10.03;;
54929;SDS011;40833;53.238;6.576;2024-03-06T02:55:43;15.53;;;10.67;;
54929;SDS011;40833;53.238;6.576;2024-03-06T02:58:09;16.90;;;10.57;;
54929;SDS011;40833;53.238;6.576;2024-03-06T03:00:35;14.47;;;10.13;;
54929;SDS011;40833;53.238;6.576;2024-03-06T03:03:00;15.30;;;10.70;;
54929;SDS011;40833;53.238;6.576;2024-03-06T03:05:26;15.57;;;10.27;;
54929;SDS011;40833;53.238;6.576;2024-03-06T03:07:52;18.57;;;10.97;;
54929;SDS011;40833;53.238;6.576;2024-03-06T03:10:18;23.10;;;10.90;;
54929;SDS011;40833;53.238;6.576;2024-03-06T03:12:43;21.00;;;10.07;;
54929;SDS011;40833;53.238;6.576;2024-03-06T03:15:10;17.50;;;10.37;;
54929;SDS011;40833;53.238;6.576;2024-03-06T03:17:36;17.77;;;10.93;;
54929;SDS011;40833;53.238;6.576;2024-03-06T03:20:02;22.10;;;11.23;;
54929;SDS011;40833;53.238;6.576;2024-03-06T03:22:38;19.03;;;10.90;;
54929;SDS011;40833;53.238;6.576;2024-03-06T03:25:10;19.47;;;10.97;;
54929;SDS011;40833;53.238;6.576;2024-03-06T03:27:40;18.90;;;10.93;;
54929;SDS011;40833;53.238;6.576;2024-03-06T03:30:09;21.10;;;11.30;;
54929;SDS011;40833;53.238;6.576;2024-03-06T03:32:36;19.33;;;11.77;;
54929;SDS011;40833;53.238;6.576;2024-03-06T03:35:03;17.80;;;10.93;;
54929;SDS011;40833;53.238;6.576;2024-03-06T03:37:30;19.63;;;11.07;;
54929;SDS011;40833;53.238;6.576;2024-03-06T03:39:56;18.70;;;10.67;;
54929;SDS011;40833;53.238;6.576;2024-03-06T03:42:22;16.20;;;11.17;;
54929;SDS011;40833;53.238;6.576;2024-03-06T03:44:47;23.60;;;11.67;;
54929;SDS011;40833;53.238;6.576;2024-03-06T03:47:13;17.97;;;11.13;;
54929;SDS011;40833;53.238;6.576;2024-03-06T03:49:39;15.57;;;10.83;;
54929;SDS011;40833;53.238;6.576;2024-03-06T03:52:05;18.83;;;12.13;;
54929;SDS011;40833;53.238;6.576;2024-03-06T03:54:31;19.53;;;12.30;;
54929;SDS011;40833;53.238;6.576;2024-03-06T03:56:57;19.10;;;11.33;;
54929;SDS011;40833;53.238;6.576;2024-03-06T03:59:24;16.50;;;11.60;;
54929;SDS011;40833;53.238;6.576;2024-03-06T04:01:50;19.67;;;12.03;;
54929;SDS011;40833;53.238;6.576;2024-03-06T04:04:16;20.83;;;12.17;;
54929;SDS011;40833;53.238;6.576;2024-03-06T04:06:42;19.50;;;12.13;;
54929;SDS011;40833;53.238;6.576;2024-03-06T04:09:08;22.17;;;13.00;;
54929;SDS011;40833;53.238;6.576;2024-03-06T04:11:37;22.10;;;12.07;;
54929;SDS011;40833;53.238;6.576;2024-03-06T04:14:03;20.97;;;12.37;;
54929;SDS011;40833;53.238;6.576;2024-03-06T04:16:31;18.50;;;11.53;;
54929;SDS011;40833;53.238;6.576;2024-03-06T04:18:56;19.23;;;12.13;;
54929;SDS011;40833;53.238;6.576;2024-03-06T04:21:22;15.90;;;12.27;;
54929;SDS011;40833;53.238;6.576;2024-03-06T04:23:48;19.33;;;12.40;;
54929;SDS011;40833;53.238;6.576;2024-03-06T04:26:13;18.60;;;11.40;;
54929;SDS011;40833;53.238;6.576;2024-03-06T04:28:39;19.27;;;11.70;;
54929;SDS011;40833;53.238;6.576;2024-03-06T04:31:05;18.63;;;12.33;;
54929;SDS011;40833;53.238;6.576;2024-03-06T04:33:31;23.37;;;14.23;;
54929;SDS011;40833;53.238;6.576;2024-03-06T04:35:56;18.20;;;12.53;;
54929;SDS011;40833;53.238;6.576;2024-03-06T04:38:22;19.90;;;11.97;;
54929;SDS011;40833;53.238;6.576;2024-03-06T04:40:48;23.27;;;13.00;;
54929;SDS011;40833;53.238;6.576;2024-03-06T04:43:13;19.57;;;12.73;;
54929;SDS011;40833;53.238;6.576;2024-03-06T04:45:39;18.97;;;12.90;;
54929;SDS011;40833;53.238;6.576;2024-03-06T04:48:05;19.67;;;11.93;;
54929;SDS011;40833;53.238;6.576;2024-03-06T04:50:31;21.60;;;12.90;;
54929;SDS011;40833;53.238;6.576;2024-03-06T04:52:57;21.83;;;12.80;;
54929;SDS011;40833;53.238;6.576;2024-03-06T04:55:23;16.70;;;12.50;;
54929;SDS011;40833;53.238;6.576;2024-03-06T04:57:50;18.90;;;12.97;;
54929;SDS011;40833;53.238;6.576;2024-03-06T05:00:16;21.83;;;12.83;;
54929;SDS011;40833;53.238;6.576;2024-03-06T05:02:43;26.13;;;13.10;;
54929;SDS011;40833;53.238;6.576;2024-03-06T05:05:09;20.97;;;13.03;;
54929;SDS011;40833;53.238;6.576;2024-03-06T05:07:35;22.27;;;13.90;;
54929;SDS011;40833;53.238;6.576;2024-03-06T05:10:00;20.83;;;12.47;;
54929;SDS011;40833;53.238;6.576;2024-03-06T05:12:26;19.77;;;12.83;;
54929;SDS011;40833;53.238;6.576;2024-03-06T05:14:52;20.83;;;12.90;;
54929;SDS011;40833;53.238;6.576;2024-03-06T05:17:19;18.10;;;12.53;;
54929;SDS011;40833;53.238;6.576;2024-03-06T05:19:46;20.33;;;13.97;;
54929;SDS011;40833;53.238;6.576;2024-03-06T05:22:13;20.40;;;13.47;;
54929;SDS011;40833;53.238;6.576;2024-03-06T05:24:39;21.87;;;13.60;;
54929;SDS011;40833;53.238;6.576;2024-03-06T05:27:05;21.50;;;13.30;;
54929;SDS011;40833;53.238;6.576;2024-03-06T05:29:31;19.53;;;12.93;;
54929;SDS011;40833;53.238;6.576;2024-03-06T05:31:58;21.20;;;13.67;;
54929;SDS011;40833;53.238;6.576;2024-03-06T05:34:23;22.70;;;13.83;;
54929;SDS011;40833;53.238;6.576;2024-03-06T05:36:49;22.93;;;13.67;;
54929;SDS011;40833;53.238;6.576;2024-03-06T05:39:15;21.90;;;13.10;;
54929;SDS011;40833;53.238;6.576;2024-03-06T05:41:43;23.53;;;14.03;;
54929;SDS011;40833;53.238;6.576;2024-03-06T05:44:09;22.47;;;13.27;;
54929;SDS011;40833;53.238;6.576;2024-03-06T05:46:35;24.57;;;14.67;;
54929;SDS011;40833;53.238;6.576;2024-03-06T05:49:01;27.40;;;14.10;;
54929;SDS011;40833;53.238;6.576;2024-03-06T05:51:27;22.67;;;13.67;;
54929;SDS011;40833;53.238;6.576;2024-03-06T05:53:53;21.13;;;13.97;;
54929;SDS011;40833;53.238;6.576;2024-03-06T05:56:19;20.50;;;13.43;;
54929;SDS011;40833;53.238;6.576;2024-03-06T05:58:45;23.33;;;11.97;;
54929;SDS011;40833;53.238;6.576;2024-03-06T06:01:15;18.90;;;12.87;;
54929;SDS011;40833;53.238;6.576;2024-03-06T06:03:45;18.73;;;13.60;;
54929;SDS011;40833;53.238;6.576;2024-03-06T06:06:14;20.57;;;13.17;;
54929;SDS011;40833;53.238;6.576;2024-03-06T06:08:40;21.73;;;13.37;;
54929;SDS011;40833;53.238;6.576;2024-03-06T06:11:06;23.63;;;14.60;;
54929;SDS011;40833;53.238;6.576;2024-03-06T06:13:32;24.37;;;12.90;;
54929;SDS011;40833;53.238;6.576;2024-03-06T06:15:58;21.13;;;12.83;;
54929;SDS011;40833;53.238;6.576;2024-03-06T06:18:24;21.13;;;12.57;;
54929;SDS011;40833;53.238;6.576;2024-03-06T06:20:50;22.53;;;12.70;;
54929;SDS011;40833;53.238;6.576;2024-03-06T06:23:16;22.70;;;13.33;;
54929;SDS011;40833;53.238;6.576;2024-03-06T06:25:41;21.90;;;12.90;;
54929;SDS011;40833;53.238;6.576;2024-03-06T06:28:07;22.90;;;12.73;;
54929;SDS011;40833;53.238;6.576;2024-03-06T06:30:35;21.53;;;12.90;;
54929;SDS011;40833;53.238;6.576;2024-03-06T06:33:01;20.23;;;13.27;;
54929;SDS011;40833;53.238;6.576;2024-03-06T06:35:27;20.07;;;12.20;;
54929;SDS011;40833;53.238;6.576;2024-03-06T06:37:52;19.30;;;12.93;;
54929;SDS011;40833;53.238;6.576;2024-03-06T06:40:18;23.97;;;13.03;;
54929;SDS011;40833;53.238;6.576;2024-03-06T06:42:45;22.07;;;12.97;;
54929;SDS011;40833;53.238;6.576;2024-03-06T06:45:14;21.37;;;13.63;;
54929;SDS011;40833;53.238;6.576;2024-03-06T06:47:40;20.43;;;13.57;;
54929;SDS011;40833;53.238;6.576;2024-03-06T06:50:06;25.60;;;13.60;;
54929;SDS011;40833;53.238;6.576;2024-03-06T06:52:34;21.23;;;13.37;;
54929;SDS011;40833;53.238;6.576;2024-03-06T06:55:00;23.13;;;12.63;;
54929;SDS011;40833;53.238;6.576;2024-03-06T06:57:26;21.33;;;12.77;;
54929;SDS011;40833;53.238;6.576;2024-03-06T06:59:51;23.77;;;15.07;;
54929;SDS011;40833;53.238;6.576;2024-03-06T07:02:17;19.70;;;14.23;;
54929;SDS011;40833;53.238;6.576;2024-03-06T07:04:43;25.27;;;14.90;;
54929;SDS011;40833;53.238;6.576;2024-03-06T07:07:09;21.70;;;13.07;;
54929;SDS011;40833;53.238;6.576;2024-03-06T07:09:35;22.13;;;13.70;;
54929;SDS011;40833;53.238;6.576;2024-03-06T07:12:00;25.47;;;14.07;;
54929;SDS011;40833;53.238;6.576;2024-03-06T07:14:27;19.07;;;14.13;;
54929;SDS011;40833;53.238;6.576;2024-03-06T07:16:53;20.83;;;14.10;;
54929;SDS011;40833;53.238;6.576;2024-03-06T07:19:19;23.43;;;15.00;;
54929;SDS011;40833;53.238;6.576;2024-03-06T07:21:45;21.10;;;13.97;;
54929;SDS011;40833;53.238;6.576;2024-03-06T07:24:11;20.47;;;13.90;;
54929;SDS011;40833;53.238;6.576;2024-03-06T07:26:36;26.23;;;14.67;;
54929;SDS011;40833;53.238;6.576;2024-03-06T07:29:02;23.37;;;14.70;;
54929;SDS011;40833;53.238;6.576;2024-03-06T07:31:28;19.80;;;14.27;;
54929;SDS011;40833;53.238;6.576;2024-03-06T07:33:54;22.20;;;14.20;;
54929;SDS011;40833;53.238;6.576;2024-03-06T07:36:20;23.90;;;15.43;;
54929;SDS011;40833;53.238;6.576;2024-03-06T07:38:47;23.43;;;15.13;;
54929;SDS011;40833;53.238;6.576;2024-03-06T07:41:12;22.03;;;14.60;;
54929;SDS011;40833;53.238;6.576;2024-03-06T07:43:38;21.60;;;14.77;;
54929;SDS011;40833;53.238;6.576;2024-03-06T07:46:04;20.73;;;12.70;;
54929;SDS011;40833;53.238;6.576;2024-03-06T07:48:36;25.90;;;13.77;;
54929;SDS011;40833;53.238;6.576;2024-03-06T07:51:02;22.13;;;14.60;;
54929;SDS011;40833;53.238;6.576;2024-03-06T07:53:28;23.40;;;13.87;;
54929;SDS011;40833;53.238;6.576;2024-03-06T07:55:54;25.93;;;13.50;;
54929;SDS011;40833;53.238;6.576;2024-03-06T07:58:19;22.67;;;14.17;;
54929;SDS011;40833;53.238;6.576;2024-03-06T08:00:46;25.40;;;12.57;;
54929;SDS011;40833;53.238;6.576;2024-03-06T08:03:12;23.80;;;14.17;;
54929;SDS011;40833;53.238;6.576;2024-03-06T08:05:38;22.80;;;14.40;;
54929;SDS011;40833;53.238;6.576;2024-03-06T08:08:04;26.00;;;14.40;;
54929;SDS011;40833;53.238;6.576;2024-03-06T08:10:30;23.90;;;14.50;;
54929;SDS011;40833;53.238;6.576;2024-03-06T08:12:56;19.87;;;13.90;;
54929;SDS011;40833;53.238;6.576;2024-03-06T08:15:22;20.50;;;14.53;;
54929;SDS011;40833;53.238;6.576;2024-03-06T08:17:48;19.83;;;13.93;;
54929;SDS011;40833;53.238;6.576;2024-03-06T08:20:14;21.83;;;14.10;;
54929;SDS011;40833;53.238;6.576;2024-03-06T08:22:41;26.80;;;15.67;;
54929;SDS011;40833;53.238;6.576;2024-03-06T08:25:08;25.10;;;15.07;;
54929;SDS011;40833;53.238;6.576;2024-03-06T08:27:36;23.23;;;14.30;;
54929;SDS011;40833;53.238;6.576;2024-03-06T08:30:06;23.70;;;13.57;;
54929;SDS011;40833;53.238;6.576;2024-03-06T08:32:33;22.67;;;14.40;;
54929;SDS011;40833;53.238;6.576;2024-03-06T08:35:10;24.20;;;14.50;;
54929;SDS011;40833;53.238;6.576;2024-03-06T08:37:37;25.40;;;13.90;;
54929;SDS011;40833;53.238;6.576;2024-03-06T08:40:05;26.20;;;15.93;;
54929;SDS011;40833;53.238;6.576;2024-03-06T08:42:45;25.00;;;15.03;;
54929;SDS011;40833;53.238;6.576;2024-03-06T08:45:14;21.73;;;13.60;;
54929;SDS011;40833;53.238;6.576;2024-03-06T08:47:44;22.80;;;14.20;;
54929;SDS011;40833;53.238;6.576;2024-03-06T08:50:11;23.07;;;13.97;;
54929;SDS011;40833;53.238;6.576;2024-03-06T08:52:37;23.60;;;14.03;;
54929;SDS011;40833;53.238;6.576;2024-03-06T08:55:06;23.70;;;15.40;;
54929;SDS011;40833;53.238;6.576;2024-03-06T08:57:35;23.03;;;14.13;;
54929;SDS011;40833;53.238;6.576;2024-03-06T09:00:02;22.23;;;14.40;;
54929;SDS011;40833;53.238;6.576;2024-03-06T09:02:28;22.93;;;14.20;;
54929;SDS011;40833;53.238;6.576;2024-03-06T09:04:55;25.67;;;14.10;;
54929;SDS011;40833;53.238;6.576;2024-03-06T09:07:21;22.07;;;13.60;;
54929;SDS011;40833;53.238;6.576;2024-03-06T09:09:50;20.70;;;13.53;;
54929;SDS011;40833;53.238;6.576;2024-03-06T09:12:18;22.23;;;14.13;;
54929;SDS011;40833;53.238;6.576;2024-03-06T09:14:44;25.70;;;14.90;;
54929;SDS011;40833;53.238;6.576;2024-03-06T09:17:10;24.50;;;13.90;;
54929;SDS011;40833;53.238;6.576;2024-03-06T09:19:39;21.40;;;13.37;;
54929;SDS011;40833;53.238;6.576;2024-03-06T09:22:06;21.97;;;13.60;;
54929;SDS011;40833;53.238;6.576;2024-03-06T09:24:32;23.77;;;15.03;;
54929;SDS011;40833;53.238;6.576;2024-03-06T09:27:00;22.27;;;14.47;;
54929;SDS011;40833;53.238;6.576;2024-03-06T09:29:26;20.93;;;14.37;;
54929;SDS011;40833;53.238;6.576;2024-03-06T09:31:52;22.47;;;14.33;;
54929;SDS011;40833;53.238;6.576;2024-03-06T09:34:18;26.17;;;13.93;;
54929;SDS011;40833;53.238;6.576;2024-03-06T09:36:47;26.77;;;15.00;;
54929;SDS011;40833;53.238;6.576;2024-03-06T09:39:17;21.67;;;14.87;;
54929;SDS011;40833;53.238;6.576;2024-03-06T09:41:48;20.37;;;14.43;;
54929;SDS011;40833;53.238;6.576;2024-03-06T09:44:15;25.03;;;14.30;;
54929;SDS011;40833;53.238;6.576;2024-03-06T09:46:44;28.07;;;15.33;;
54929;SDS011;40833;53.238;6.576;2024-03-06T09:49:11;26.93;;;15.80;;
54929;SDS011;40833;53.238;6.576;2024-03-06T09:51:40;22.87;;;15.37;;
54929;SDS011;40833;53.238;6.576;2024-03-06T09:54:12;25.17;;;15.30;;
54929;SDS011;40833;53.238;6.576;2024-03-06T09:56:40;23.90;;;15.87;;
54929;SDS011;40833;53.238;6.576;2024-03-06T09:59:13;24.90;;;15.90;;
54929;SDS011;40833;53.238;6.576;2024-03-06T10:02:00;27.17;;;16.07;;
54929;SDS011;40833;53.238;6.576;2024-03-06T10:04:28;25.13;;;15.27;;
54929;SDS011;40833;53.238;6.576;2024-03-06T10:06:54;27.37;;;16.70;;
54929;SDS011;40833;53.238;6.576;2024-03-06T10:09:24;27.83;;;16.40;;
54929;SDS011;40833;53.238;6.576;2024-03-06T10:11:51;26.80;;;15.37;;
54929;SDS011;40833;53.238;6.576;2024-03-06T10:14:21;27.00;;;16.33;;
54929;SDS011;40833;53.238;6.576;2024-03-06T10:16:51;26.30;;;15.20;;
54929;SDS011;40833;53.238;6.576;2024-03-06T10:19:22;30.17;;;16.23;;
54929;SDS011;40833;53.238;6.576;2024-03-06T10:21:49;24.90;;;15.40;;
54929;SDS011;40833;53.238;6.576;2024-03-06T10:24:22;24.10;;;15.23;;
54929;SDS011;40833;53.238;6.576;2024-03-06T10:26:52;24.87;;;16.03;;
54929;SDS011;40833;53.238;6.576;2024-03-06T10:29:23;28.97;;;16.33;;
54929;SDS011;40833;53.238;6.576;2024-03-06T10:31:51;27.43;;;15.27;;
54929;SDS011;40833;53.238;6.576;2024-03-06T10:34:18;27.57;;;16.20;;
54929;SDS011;40833;53.238;6.576;2024-03-06T10:36:45;29.93;;;17.40;;
54929;SDS011;40833;53.238;6.576;2024-03-06T10:39:11;26.30;;;15.83;;
54929;SDS011;40833;53.238;6.576;2024-03-06T10:41:40;29.17;;;17.53;;
54929;SDS011;40833;53.238;6.576;2024-03-06T10:44:09;23.03;;;15.00;;
54929;SDS011;40833;53.238;6.576;2024-03-06T10:46:43;25.70;;;15.45;;
54929;SDS011;40833;53.238;6.576;2024-03-06T10:49:12;25.38;;;15.38;;
54929;SDS011;40833;53.238;6.576;2024-03-06T10:51:42;25.77;;;15.20;;
54929;SDS011;40833;53.238;6.576;2024-03-06T10:54:10;27.13;;;15.90;;
54929;SDS011;40833;53.238;6.576;2024-03-06T10:56:39;32.53;;;17.33;;
54929;SDS011;40833;53.238;6.576;2024-03-06T10:59:11;35.67;;;19.03;;
54929;SDS011;40833;53.238;6.576;2024-03-06T11:01:39;30.70;;;17.13;;
54929;SDS011;40833;53.238;6.576;2024-03-06T11:04:06;27.60;;;16.33;;
54929;SDS011;40833;53.238;6.576;2024-03-06T11:06:32;24.83;;;16.30;;
54929;SDS011;40833;53.238;6.576;2024-03-06T11:08:59;34.23;;;17.33;;
54929;SDS011;40833;53.238;6.576;2024-03-06T11:11:27;27.83;;;17.33;;
54929;SDS011;40833;53.238;6.576;2024-03-06T11:13:59;33.63;;;17.50;;
54929;SDS011;40833;53.238;6.576;2024-03-06T11:16:26;25.80;;;16.50;;
54929;SDS011;40833;53.238;6.576;2024-03-06T11:19:04;30.77;;;17.83;;
54929;SDS011;40833;53.238;6.576;2024-03-06T11:21:33;32.37;;;18.67;;
54929;SDS011;40833;53.238;6.576;2024-03-06T11:24:12;34.07;;;19.27;;
54929;SDS011;40833;53.238;6.576;2024-03-06T11:26:46;29.57;;;19.30;;
54929;SDS011;40833;53.238;6.576;2024-03-06T11:32:02;31.80;;;19.70;;
54929;SDS011;40833;53.238;6.576;2024-03-06T11:34:31;32.23;;;19.03;;
54929;SDS011;40833;53.238;6.576;2024-03-06T11:36:57;37.40;;;19.97;;
54929;SDS011;40833;53.238;6.576;2024-03-06T11:39:24;32.20;;;18.73;;
54929;SDS011;40833;53.238;6.576;2024-03-06T11:41:52;30.53;;;17.60;;
54929;SDS011;40833;53.238;6.576;2024-03-06T11:44:21;31.17;;;18.53;;
54929;SDS011;40833;53.238;6.576;2024-03-06T11:46:58;31.77;;;17.87;;
54929;SDS011;40833;53.238;6.576;2024-03-06T11:49:29;31.33;;;17.37;;
54929;SDS011;40833;53.238;6.576;2024-03-06T11:52:02;33.73;;;17.97;;
54929;SDS011;40833;53.238;6.576;2024-03-06T11:54:33;32.70;;;19.20;;
54929;SDS011;40833;53.238;6.576;2024-03-06T11:56:59;36.57;;;20.00;;
54929;SDS011;40833;53.238;6.576;2024-03-06T11:59:28;35.00;;;19.30;;
54929;SDS011;40833;53.238;6.576;2024-03-06T12:01:55;32.47;;;18.57;;
54929;SDS011;40833;53.238;6.576;2024-03-06T12:04:26;30.38;;;18.70;;
54929;SDS011;40833;53.238;6.576;2024-03-06T12:06:52;33.03;;;18.83;;
54929;SDS011;40833;53.238;6.576;2024-03-06T12:09:30;33.00;;;18.97;;
54929;SDS011;40833;53.238;6.576;2024-03-06T12:11:57;32.83;;;19.47;;
54929;SDS011;40833;53.238;6.576;2024-03-06T12:14:23;31.57;;;18.43;;
54929;SDS011;40833;53.238;6.576;2024-03-06T12:17:01;35.73;;;19.23;;
54929;SDS011;40833;53.238;6.576;2024-03-06T12:19:34;35.77;;;19.50;;
54929;SDS011;40833;53.238;6.576;2024-03-06T12:22:02;32.57;;;20.07;;
54929;SDS011;40833;53.238;6.576;2024-03-06T12:24:31;31.27;;;21.17;;
54929;SDS011;40833;53.238;6.576;2024-03-06T12:26:59;38.40;;;21.43;;
54929;SDS011;40833;53.238;6.576;2024-03-06T12:29:27;37.73;;;19.90;;
54929;SDS011;40833;53.238;6.576;2024-03-06T12:31:55;36.77;;;20.73;;
54929;SDS011;40833;53.238;6.576;2024-03-06T12:34:22;37.60;;;20.07;;
54929;SDS011;40833;53.238;6.576;2024-03-06T12:36:48;30.00;;;18.83;;
54929;SDS011;40833;53.238;6.576;2024-03-06T12:39:15;32.93;;;20.23;;
54929;SDS011;40833;53.238;6.576;2024-03-06T12:41:43;33.90;;;19.37;;
54929;SDS011;40833;53.238;6.576;2024-03-06T12:44:10;34.50;;;22.93;;
54929;SDS011;40833;53.238;6.576;2024-03-06T12:46:36;31.70;;;19.77;;
54929;SDS011;40833;53.238;6.576;2024-03-06T12:49:01;28.37;;;18.93;;
54929;SDS011;40833;53.238;6.576;2024-03-06T12:51:27;31.17;;;19.63;;
54929;SDS011;40833;53.238;6.576;2024-03-06T12:53:53;41.40;;;23.37;;
54929;SDS011;40833;53.238;6.576;2024-03-06T12:56:18;33.13;;;21.30;;
54929;SDS011;40833;53.238;6.576;2024-03-06T12:58:44;30.10;;;20.23;;
54929;SDS011;40833;53.238;6.576;2024-03-06T13:01:10;28.63;;;20.53;;
54929;SDS011;40833;53.238;6.576;2024-03-06T13:03:36;31.13;;;20.43;;
54929;SDS011;40833;53.238;6.576;2024-03-06T13:06:03;35.80;;;21.17;;
54929;SDS011;40833;53.238;6.576;2024-03-06T13:08:31;30.13;;;20.20;;
54929;SDS011;40833;53.238;6.576;2024-03-06T13:10:57;29.60;;;19.77;;
54929;SDS011;40833;53.238;6.576;2024-03-06T13:13:23;33.83;;;19.93;;
54929;SDS011;40833;53.238;6.576;2024-03-06T13:15:50;30.97;;;20.57;;
54929;SDS011;40833;53.238;6.576;2024-03-06T13:18:16;34.43;;;21.10;;
54929;SDS011;40833;53.238;6.576;2024-03-06T13:20:42;30.50;;;19.57;;
54929;SDS011;40833;53.238;6.576;2024-03-06T13:23:09;26.37;;;18.60;;
54929;SDS011;40833;53.238;6.576;2024-03-06T13:25:35;25.33;;;17.87;;
54929;SDS011;40833;53.238;6.576;2024-03-06T13:28:00;25.90;;;18.30;;
54929;SDS011;40833;53.238;6.576;2024-03-06T13:30:26;26.60;;;18.63;;
54929;SDS011;40833;53.238;6.576;2024-03-06T13:32:53;29.73;;;18.37;;
54929;SDS011;40833;53.238;6.576;2024-03-06T13:35:19;26.97;;;18.07;;
54929;SDS011;40833;53.238;6.576;2024-03-06T13:37:45;24.67;;;17.87;;
54929;SDS011;40833;53.238;6.576;2024-03-06T13:40:11;24.97;;;17.77;;
54929;SDS011;40833;53.238;6.576;2024-03-06T13:42:41;25.27;;;18.00;;
54929;SDS011;40833;53.238;6.576;2024-03-06T13:45:07;23.30;;;16.67;;
54929;SDS011;40833;53.238;6.576;2024-03-06T13:47:45;26.70;;;17.07;;
54929;SDS011;40833;53.238;6.576;2024-03-06T13:50:12;24.07;;;16.47;;
54929;SDS011;40833;53.238;6.576;2024-03-06T13:52:39;24.00;;;16.83;;
54929;SDS011;40833;53.238;6.576;2024-03-06T13:55:05;22.67;;;17.20;;
54929;SDS011;40833;53.238;6.576;2024-03-06T13:57:32;24.43;;;17.63;;
54929;SDS011;40833;53.238;6.576;2024-03-06T14:00:04;25.20;;;16.97;;
54929;SDS011;40833;53.238;6.576;2024-03-06T14:02:31;24.00;;;16.53;;
54929;SDS011;40833;53.238;6.576;2024-03-06T14:04:57;21.23;;;16.23;;
54929;SDS011;40833;53.238;6.576;2024-03-06T14:07:23;24.37;;;16.37;;
54929;SDS011;40833;53.238;6.576;2024-03-06T14:09:50;24.30;;;16.93;;
54929;SDS011;40833;53.238;6.576;2024-03-06T14:12:16;21.27;;;16.13;;
54929;SDS011;40833;53.238;6.576;2024-03-06T14:14:42;21.20;;;17.10;;
54929;SDS011;40833;53.238;6.576;2024-03-06T14:17:10;23.57;;;17.00;;
54929;SDS011;40833;53.238;6.576;2024-03-06T14:19:36;20.90;;;16.20;;
54929;SDS011;40833;53.238;6.576;2024-03-06T14:22:02;22.33;;;16.13;;
54929;SDS011;40833;53.238;6.576;2024-03-06T14:24:27;22.70;;;16.60;;
54929;SDS011;40833;53.238;6.576;2024-03-06T14:26:53;20.07;;;16.50;;